sensor_id;sensor_type;location;lat;lon;timestamp;temperature;humidity
31597;DHT22;18201;50.978;7.034;2023-03-09T08:35:29;4.90;99.90
31597;DHT22;18201;50.978;7.034;2023-03-09T08:36:10;5.00;99.90
31597;DHT22;18201;50.978;7.034;2023-03-09T08:36:41;5.00;99.90
31597;DHT22;18201;50.978;7.034;2023-03-09T08:37:12;5.00;99.90
31597;DHT22;18201;50.978;7.034;2023-03-09T08:37:44;4.90;99.90
31597;DHT22;18201;50.978;7.034;2023-03-09T08:38:15;4.90;99.90
31597;DHT22;18201;50.978;7.034;2023-03-09T08:38:48;4.90;99.90
31597;DHT22;18201;50.978;7.034;2023-03-09T08:39:19;4.90;99.90
31597;DHT22;18201;50.978;7.034;2023-03-09T08:39:51;4.90;99.90
31597;DHT22;18201;50.978;7.034;2023-03-09T08:40:23;4.90;99.90
31597;DHT22;18201;50.978;7.034;2023-03-09T08:40:54;4.90;99.90
31597;DHT22;18201;50.978;7.034;2023-03-09T08:41:25;5.00;99.90
31597;DHT22;18201;50.978;7.034;2023-03-09T08:41:56;5.00;99.90
31597;DHT22;18201;50.978;7.034;2023-03-09T08:42:27;4.90;99.90
31597;DHT22;18201;50.978;7.034;2023-03-09T08:42:59;4.90;99.90
31597;DHT22;18201;50.978;7.034;2023-03-09T08:43:30;4.90;99.90
31597;DHT22;18201;50.978;7.034;2023-03-09T08:44:01;4.90;99.90
31597;DHT22;18201;50.978;7.034;2023-03-09T08:44:33;4.90;99.90
31597;DHT22;18201;50.978;7.034;2023-03-09T08:45:05;4.90;99.90
31597;DHT22;18201;50.978;7.034;2023-03-09T08:45:38;4.90;99.90
31597;DHT22;18201;50.978;7.034;2023-03-09T08:46:10;4.90;99.90
31597;DHT22;18201;50.978;7.034;2023-03-09T08:46:41;4.90;99.90
31597;DHT22;18201;50.978;7.034;2023-03-09T08:47:12;4.90;99.90
31597;DHT22;18201;50.978;7.034;2023-03-09T08:47:44;4.90;99.90
31597;DHT22;18201;50.978;7.034;2023-03-09T08:48:15;4.80;99.90
31597;DHT22;18201;50.978;7.034;2023-03-09T08:48:47;4.90;99.90
31597;DHT22;18201;50.978;7.034;2023-03-09T08:49:18;4.90;99.90
31597;DHT22;18201;50.978;7.034;2023-03-09T08:49:49;4.90;99.90
31597;DHT22;18201;50.978;7.034;2023-03-09T08:50:21;4.90;99.90
31597;DHT22;18201;50.978;7.034;2023-03-09T08:50:53;4.90;99.90
31597;DHT22;18201;50.978;7.034;2023-03-09T08:51:25;4.90;99.90
31597;DHT22;18201;50.978;7.034;2023-03-09T08:51:59;4.90;99.90
31597;DHT22;18201;50.978;7.034;2023-03-09T08:52:30;4.90;99.90
31597;DHT22;18201;50.978;7.034;2023-03-09T08:53:05;4.90;99.90
31597;DHT22;18201;50.978;7.034;2023-03-09T08:53:37;5.00;99.90
31597;DHT22;18201;50.978;7.034;2023-03-09T08:54:08;5.00;99.90
31597;DHT22;18201;50.978;7.034;2023-03-09T08:54:39;5.00;99.90
31597;DHT22;18201;50.978;7.034;2023-03-09T08:55:11;5.00;99.90
31597;DHT22;18201;50.978;7.034;2023-03-09T08:55:42;5.00;99.90
31597;DHT22;18201;50.978;7.034;2023-03-09T08:56:13;5.00;99.90
31597;DHT22;18201;50.978;7.034;2023-03-09T08:56:45;5.00;99.90
31597;DHT22;18201;50.978;7.034;2023-03-09T08:57:16;5.00;99.90
31597;DHT22;18201;50.978;7.034;2023-03-09T08:57:47;5.10;99.90
31597;DHT22;18201;50.978;7.034;2023-03-09T08:58:19;5.10;99.90
31597;DHT22;18201;50.978;7.034;2023-03-09T08:58:50;5.10;99.90
31597;DHT22;18201;50.978;7.034;2023-03-09T08:59:22;5.10;99.90
31597;DHT22;18201;50.978;7.034;2023-03-09T08:59:53;5.10;99.90
31597;DHT22;18201;50.978;7.034;2023-03-09T09:00:24;5.10;99.90
31597;DHT22;18201;50.978;7.034;2023-03-09T09:00:56;5.20;99.90
31597;DHT22;18201;50.978;7.034;2023-03-09T09:01:27;5.20;99.90
31597;DHT22;18201;50.978;7.034;2023-03-09T09:01:58;5.20;99.90
31597;DHT22;18201;50.978;7.034;2023-03-09T09:02:29;5.20;99.90
31597;DHT22;18201;50.978;7.034;2023-03-09T09:03:00;5.20;99.90
31597;DHT22;18201;50.978;7.034;2023-03-09T09:03:32;5.10;99.90
31597;DHT22;18201;50.978;7.034;2023-03-09T09:04:04;5.20;99.90
31597;DHT22;18201;50.978;7.034;2023-03-09T09:04:34;5.20;99.90
31597;DHT22;18201;50.978;7.034;2023-03-09T09:05:07;5.10;99.90
31597;DHT22;18201;50.978;7.034;2023-03-09T09:05:39;5.10;99.90
31597;DHT22;18201;50.978;7.034;2023-03-09T09:06:12;5.20;99.90
31597;DHT22;18201;50.978;7.034;2023-03-09T09:06:45;5.20;99.90
31597;DHT22;18201;50.978;7.034;2023-03-09T09:07:16;5.20;99.90
31597;DHT22;18201;50.978;7.034;2023-03-09T09:07:48;5.20;99.90
31597;DHT22;18201;50.978;7.034;2023-03-09T09:08:20;5.20;99.90
31597;DHT22;18201;50.978;7.034;2023-03-09T09:08:51;5.20;99.90
31597;DHT22;18201;50.978;7.034;2023-03-09T09:09:23;5.20;99.90
31597;DHT22;18201;50.978;7.034;2023-03-09T09:09:55;5.20;99.90
31597;DHT22;18201;50.978;7.034;2023-03-09T09:10:26;5.20;99.90
31597;DHT22;18201;50.978;7.034;2023-03-09T09:10:59;5.20;99.90
31597;DHT22;18201;50.978;7.034;2023-03-09T09:11:30;5.20;99.90
31597;DHT22;18201;50.978;7.034;2023-03-09T09:12:03;5.20;99.90
31597;DHT22;18201;50.978;7.034;2023-03-09T09:12:36;5.30;99.90
31597;DHT22;18201;50.978;7.034;2023-03-09T09:13:08;5.30;99.90
31597;DHT22;18201;50.978;7.034;2023-03-09T09:13:39;5.30;99.90
31597;DHT22;18201;50.978;7.034;2023-03-09T09:14:10;5.30;99.90
31597;DHT22;18201;50.978;7.034;2023-03-09T09:14:41;5.30;99.90
31597;DHT22;18201;50.978;7.034;2023-03-09T09:15:13;5.30;99.90
31597;DHT22;18201;50.978;7.034;2023-03-09T09:15:52;5.30;99.90
31597;DHT22;18201;50.978;7.034;2023-03-09T09:16:23;5.30;99.90
31597;DHT22;18201;50.978;7.034;2023-03-09T09:16:57;5.30;99.90
31597;DHT22;18201;50.978;7.034;2023-03-09T09:17:29;5.40;99.90
31597;DHT22;18201;50.978;7.034;2023-03-09T09:18:00;5.40;99.90
31597;DHT22;18201;50.978;7.034;2023-03-09T09:18:32;5.40;99.90
31597;DHT22;18201;50.978;7.034;2023-03-09T09:19:03;5.40;99.90
31597;DHT22;18201;50.978;7.034;2023-03-09T09:19:36;5.50;99.90
31597;DHT22;18201;50.978;7.034;2023-03-09T09:20:07;5.50;99.90
31597;DHT22;18201;50.978;7.034;2023-03-09T09:20:39;5.50;99.90
31597;DHT22;18201;50.978;7.034;2023-03-09T09:21:14;5.40;99.90
31597;DHT22;18201;50.978;7.034;2023-03-09T09:21:45;5.40;99.90
31597;DHT22;18201;50.978;7.034;2023-03-09T09:22:16;5.40;99.90
31597;DHT22;18201;50.978;7.034;2023-03-09T09:22:47;5.40;99.90
31597;DHT22;18201;50.978;7.034;2023-03-09T09:23:19;5.40;99.90
31597;DHT22;18201;50.978;7.034;2023-03-09T09:23:49;5.40;99.90
31597;DHT22;18201;50.978;7.034;2023-03-09T09:24:23;5.40;99.90
31597;DHT22;18201;50.978;7.034;2023-03-09T09:24:54;5.40;99.90
31597;DHT22;18201;50.978;7.034;2023-03-09T09:25:25;5.40;99.90
31597;DHT22;18201;50.978;7.034;2023-03-09T09:25:57;5.30;99.90
31597;DHT22;18201;50.978;7.034;2023-03-09T09:26:28;5.30;99.90
31597;DHT22;18201;50.978;7.034;2023-03-09T09:26:59;5.20;99.90
31597;DHT22;18201;50.978;7.034;2023-03-09T09:27:30;5.30;99.90
31597;DHT22;18201;50.978;7.034;2023-03-09T09:28:01;5.30;99.90
31597;DHT22;18201;50.978;7.034;2023-03-09T09:28:33;5.30;99.90
31597;DHT22;18201;50.978;7.034;2023-03-09T09:29:04;5.30;99.90
31597;DHT22;18201;50.978;7.034;2023-03-09T09:29:37;5.30;99.90
31597;DHT22;18201;50.978;7.034;2023-03-09T09:30:09;5.30;99.90
31597;DHT22;18201;50.978;7.034;2023-03-09T09:30:41;5.30;99.90
31597;DHT22;18201;50.978;7.034;2023-03-09T09:31:17;5.20;99.90
31597;DHT22;18201;50.978;7.034;2023-03-09T09:31:50;5.20;99.90
31597;DHT22;18201;50.978;7.034;2023-03-09T09:32:21;5.20;99.90
31597;DHT22;18201;50.978;7.034;2023-03-09T09:32:52;5.20;99.90
31597;DHT22;18201;50.978;7.034;2023-03-09T09:33:24;5.10;99.90
31597;DHT22;18201;50.978;7.034;2023-03-09T09:33:55;5.10;99.90
31597;DHT22;18201;50.978;7.034;2023-03-09T09:34:29;5.10;99.90
31597;DHT22;18201;50.978;7.034;2023-03-09T09:35:02;5.10;99.90
31597;DHT22;18201;50.978;7.034;2023-03-09T09:35:35;5.10;99.90
31597;DHT22;18201;50.978;7.034;2023-03-09T09:36:10;5.10;99.90
31597;DHT22;18201;50.978;7.034;2023-03-09T09:36:43;5.10;99.90
31597;DHT22;18201;50.978;7.034;2023-03-09T09:37:13;5.10;99.90
31597;DHT22;18201;50.978;7.034;2023-03-09T09:37:45;5.10;99.90
31597;DHT22;18201;50.978;7.034;2023-03-09T09:38:17;5.10;99.90
31597;DHT22;18201;50.978;7.034;2023-03-09T09:38:48;5.10;99.90
31597;DHT22;18201;50.978;7.034;2023-03-09T09:39:20;5.20;99.90
31597;DHT22;18201;50.978;7.034;2023-03-09T09:39:51;5.10;99.90
31597;DHT22;18201;50.978;7.034;2023-03-09T09:40:23;5.10;99.90
31597;DHT22;18201;50.978;7.034;2023-03-09T09:40:55;5.20;99.90
31597;DHT22;18201;50.978;7.034;2023-03-09T09:41:36;5.20;99.90
31597;DHT22;18201;50.978;7.034;2023-03-09T09:42:13;5.20;99.90
31597;DHT22;18201;50.978;7.034;2023-03-09T09:42:45;5.20;99.90
31597;DHT22;18201;50.978;7.034;2023-03-09T09:43:17;5.20;99.90
31597;DHT22;18201;50.978;7.034;2023-03-09T09:43:50;5.20;99.90
31597;DHT22;18201;50.978;7.034;2023-03-09T09:44:25;5.20;99.90
31597;DHT22;18201;50.978;7.034;2023-03-09T09:44:59;5.20;99.90
31597;DHT22;18201;50.978;7.034;2023-03-09T09:45:32;5.20;99.90
31597;DHT22;18201;50.978;7.034;2023-03-09T09:46:05;5.20;99.90
31597;DHT22;18201;50.978;7.034;2023-03-09T09:46:39;5.20;99.90
31597;DHT22;18201;50.978;7.034;2023-03-09T09:47:13;5.30;99.90
31597;DHT22;18201;50.978;7.034;2023-03-09T09:47:47;5.30;99.90
31597;DHT22;18201;50.978;7.034;2023-03-09T09:48:20;5.30;99.90
31597;DHT22;18201;50.978;7.034;2023-03-09T09:48:52;5.30;99.90
31597;DHT22;18201;50.978;7.034;2023-03-09T09:49:26;5.30;99.90
31597;DHT22;18201;50.978;7.034;2023-03-09T09:50:00;5.30;99.90
31597;DHT22;18201;50.978;7.034;2023-03-09T09:50:40;5.40;99.90
31597;DHT22;18201;50.978;7.034;2023-03-09T09:51:22;5.40;99.90
31597;DHT22;18201;50.978;7.034;2023-03-09T09:52:06;5.40;99.90
31597;DHT22;18201;50.978;7.034;2023-03-09T09:52:46;5.40;99.90
31597;DHT22;18201;50.978;7.034;2023-03-09T09:53:28;5.40;99.90
31597;DHT22;18201;50.978;7.034;2023-03-09T09:54:07;5.40;99.90
31597;DHT22;18201;50.978;7.034;2023-03-09T09:54:41;5.40;99.90
31597;DHT22;18201;50.978;7.034;2023-03-09T09:55:20;5.40;99.90
31597;DHT22;18201;50.978;7.034;2023-03-09T09:55:53;5.40;99.90
31597;DHT22;18201;50.978;7.034;2023-03-09T09:56:28;5.40;99.90
31597;DHT22;18201;50.978;7.034;2023-03-09T09:57:08;5.50;99.90
31597;DHT22;18201;50.978;7.034;2023-03-09T09:57:41;5.50;99.90
31597;DHT22;18201;50.978;7.034;2023-03-09T09:58:25;5.50;99.90
31597;DHT22;18201;50.978;7.034;2023-03-09T09:59:03;5.50;99.90
31597;DHT22;18201;50.978;7.034;2023-03-09T09:59:39;5.50;99.90
31597;DHT22;18201;50.978;7.034;2023-03-09T10:00:14;5.50;99.90
31597;DHT22;18201;50.978;7.034;2023-03-09T10:00:48;5.40;99.90
31597;DHT22;18201;50.978;7.034;2023-03-09T10:01:25;5.40;99.90
31597;DHT22;18201;50.978;7.034;2023-03-09T10:02:01;5.40;99.90
31597;DHT22;18201;50.978;7.034;2023-03-09T10:02:42;5.40;99.90
31597;DHT22;18201;50.978;7.034;2023-03-09T10:03:20;5.40;99.90
31597;DHT22;18201;50.978;7.034;2023-03-09T10:03:57;5.30;99.90
31597;DHT22;18201;50.978;7.034;2023-03-09T10:04:35;5.30;99.90
31597;DHT22;18201;50.978;7.034;2023-03-09T10:05:14;5.30;99.90
31597;DHT22;18201;50.978;7.034;2023-03-09T10:05:50;5.30;99.90
31597;DHT22;18201;50.978;7.034;2023-03-09T10:06:24;5.30;99.90
31597;DHT22;18201;50.978;7.034;2023-03-09T10:07:00;5.40;99.90
31597;DHT22;18201;50.978;7.034;2023-03-09T10:07:35;5.40;99.90
31597;DHT22;18201;50.978;7.034;2023-03-09T10:08:23;5.40;99.90
31597;DHT22;18201;50.978;7.034;2023-03-09T10:08:58;5.40;99.90
31597;DHT22;18201;50.978;7.034;2023-03-09T10:09:31;5.40;99.90
31597;DHT22;18201;50.978;7.034;2023-03-09T10:10:09;5.40;99.90
31597;DHT22;18201;50.978;7.034;2023-03-09T10:10:42;5.40;99.90
31597;DHT22;18201;50.978;7.034;2023-03-09T10:11:22;5.40;99.90
31597;DHT22;18201;50.978;7.034;2023-03-09T10:11:54;5.40;99.90
31597;DHT22;18201;50.978;7.034;2023-03-09T10:12:29;5.40;99.90
31597;DHT22;18201;50.978;7.034;2023-03-09T10:13:04;5.40;99.90
31597;DHT22;18201;50.978;7.034;2023-03-09T10:13:45;5.40;99.90
31597;DHT22;18201;50.978;7.034;2023-03-09T10:14:23;5.40;99.90
31597;DHT22;18201;50.978;7.034;2023-03-09T10:14:59;5.40;99.90
31597;DHT22;18201;50.978;7.034;2023-03-09T10:15:34;5.40;99.90
31597;DHT22;18201;50.978;7.034;2023-03-09T10:16:14;5.40;99.90
31597;DHT22;18201;50.978;7.034;2023-03-09T10:16:50;5.40;99.90
31597;DHT22;18201;50.978;7.034;2023-03-09T10:17:29;5.40;99.90
31597;DHT22;18201;50.978;7.034;2023-03-09T10:18:04;5.50;99.90
31597;DHT22;18201;50.978;7.034;2023-03-09T10:18:42;5.50;99.90
31597;DHT22;18201;50.978;7.034;2023-03-09T10:19:16;5.40;99.90
31597;DHT22;18201;50.978;7.034;2023-03-09T10:19:48;5.40;99.90
31597;DHT22;18201;50.978;7.034;2023-03-09T10:20:25;5.40;99.90
31597;DHT22;18201;50.978;7.034;2023-03-09T10:20:58;5.30;99.90
31597;DHT22;18201;50.978;7.034;2023-03-09T10:21:34;5.30;99.90
31597;DHT22;18201;50.978;7.034;2023-03-09T10:22:17;5.30;99.90
31597;DHT22;18201;50.978;7.034;2023-03-09T10:22:54;5.40;99.90
31597;DHT22;18201;50.978;7.034;2023-03-09T10:23:30;5.30;99.90
31597;DHT22;18201;50.978;7.034;2023-03-09T10:24:11;5.30;99.90
31597;DHT22;18201;50.978;7.034;2023-03-09T10:24:46;5.40;99.90
31597;DHT22;18201;50.978;7.034;2023-03-09T10:25:20;5.40;99.90
31597;DHT22;18201;50.978;7.034;2023-03-09T10:25:53;5.40;99.90
31597;DHT22;18201;50.978;7.034;2023-03-09T10:26:35;5.40;99.90
31597;DHT22;18201;50.978;7.034;2023-03-09T10:27:17;5.50;99.90
31597;DHT22;18201;50.978;7.034;2023-03-09T10:27:52;5.40;99.90
31597;DHT22;18201;50.978;7.034;2023-03-09T10:28:30;5.50;99.90
31597;DHT22;18201;50.978;7.034;2023-03-09T10:29:12;5.50;99.90
31597;DHT22;18201;50.978;7.034;2023-03-09T10:29:52;5.40;99.90
31597;DHT22;18201;50.978;7.034;2023-03-09T10:30:32;5.50;99.90
31597;DHT22;18201;50.978;7.034;2023-03-09T10:31:14;5.50;99.90
31597;DHT22;18201;50.978;7.034;2023-03-09T10:31:50;5.50;99.90
31597;DHT22;18201;50.978;7.034;2023-03-09T10:32:34;5.60;99.90
31597;DHT22;18201;50.978;7.034;2023-03-09T10:33:15;5.60;99.90
31597;DHT22;18201;50.978;7.034;2023-03-09T10:33:52;5.70;99.90
31597;DHT22;18201;50.978;7.034;2023-03-09T10:34:26;5.70;99.90
31597;DHT22;18201;50.978;7.034;2023-03-09T10:35:06;5.70;99.90
31597;DHT22;18201;50.978;7.034;2023-03-09T10:35:44;5.60;99.90
31597;DHT22;18201;50.978;7.034;2023-03-09T10:36:21;5.70;99.90
31597;DHT22;18201;50.978;7.034;2023-03-09T10:36:59;5.70;99.90
31597;DHT22;18201;50.978;7.034;2023-03-09T10:37:34;5.70;99.90
31597;DHT22;18201;50.978;7.034;2023-03-09T10:38:11;5.70;99.90
31597;DHT22;18201;50.978;7.034;2023-03-09T10:38:42;5.70;99.90
31597;DHT22;18201;50.978;7.034;2023-03-09T10:39:16;5.70;99.90
31597;DHT22;18201;50.978;7.034;2023-03-09T10:39:48;5.70;99.90
31597;DHT22;18201;50.978;7.034;2023-03-09T10:40:21;5.60;99.90
31597;DHT22;18201;50.978;7.034;2023-03-09T10:40:53;5.70;99.90
31597;DHT22;18201;50.978;7.034;2023-03-09T10:41:27;5.70;99.90
31597;DHT22;18201;50.978;7.034;2023-03-09T10:42:03;5.70;99.90
31597;DHT22;18201;50.978;7.034;2023-03-09T10:42:37;5.70;99.90
31597;DHT22;18201;50.978;7.034;2023-03-09T10:43:14;5.80;99.90
31597;DHT22;18201;50.978;7.034;2023-03-09T10:43:55;5.80;99.90
31597;DHT22;18201;50.978;7.034;2023-03-09T10:44:28;5.80;99.90
31597;DHT22;18201;50.978;7.034;2023-03-09T10:45:06;5.90;99.90
31597;DHT22;18201;50.978;7.034;2023-03-09T10:45:44;5.90;99.90
31597;DHT22;18201;50.978;7.034;2023-03-09T10:46:18;5.90;99.90
31597;DHT22;18201;50.978;7.034;2023-03-09T10:46:57;5.90;99.90
31597;DHT22;18201;50.978;7.034;2023-03-09T10:47:52;6.00;99.90
31597;DHT22;18201;50.978;7.034;2023-03-09T10:48:25;6.00;99.90
31597;DHT22;18201;50.978;7.034;2023-03-09T10:49:17;6.00;99.90
31597;DHT22;18201;50.978;7.034;2023-03-09T10:50:07;5.90;99.90
31597;DHT22;18201;50.978;7.034;2023-03-09T10:50:55;5.90;99.90
31597;DHT22;18201;50.978;7.034;2023-03-09T10:51:36;6.00;99.90
31597;DHT22;18201;50.978;7.034;2023-03-09T10:52:16;6.00;99.90
31597;DHT22;18201;50.978;7.034;2023-03-09T10:52:49;6.00;99.90
31597;DHT22;18201;50.978;7.034;2023-03-09T10:53:28;5.90;99.90
31597;DHT22;18201;50.978;7.034;2023-03-09T10:54:14;6.00;99.90
31597;DHT22;18201;50.978;7.034;2023-03-09T10:54:52;6.00;99.90
31597;DHT22;18201;50.978;7.034;2023-03-09T10:55:43;6.00;99.90
31597;DHT22;18201;50.978;7.034;2023-03-09T10:56:20;6.00;99.90
31597;DHT22;18201;50.978;7.034;2023-03-09T10:56:51;6.00;99.90
31597;DHT22;18201;50.978;7.034;2023-03-09T10:57:25;6.00;99.90
31597;DHT22;18201;50.978;7.034;2023-03-09T10:57:59;6.10;99.90
31597;DHT22;18201;50.978;7.034;2023-03-09T10:58:30;6.10;99.90
31597;DHT22;18201;50.978;7.034;2023-03-09T10:59:13;6.10;99.90
31597;DHT22;18201;50.978;7.034;2023-03-09T10:59:55;6.10;99.90
31597;DHT22;18201;50.978;7.034;2023-03-09T11:00:27;6.10;99.90
31597;DHT22;18201;50.978;7.034;2023-03-09T11:01:01;6.10;99.90
31597;DHT22;18201;50.978;7.034;2023-03-09T11:01:34;6.10;99.90
31597;DHT22;18201;50.978;7.034;2023-03-09T11:02:25;6.20;99.90
31597;DHT22;18201;50.978;7.034;2023-03-09T11:02:58;6.20;99.90
31597;DHT22;18201;50.978;7.034;2023-03-09T11:03:34;6.20;99.90
31597;DHT22;18201;50.978;7.034;2023-03-09T11:04:29;6.20;99.90
31597;DHT22;18201;50.978;7.034;2023-03-09T11:05:13;6.20;99.90
31597;DHT22;18201;50.978;7.034;2023-03-09T11:05:44;6.20;99.90
31597;DHT22;18201;50.978;7.034;2023-03-09T11:06:24;6.20;99.90
31597;DHT22;18201;50.978;7.034;2023-03-09T11:06:56;6.30;99.90
31597;DHT22;18201;50.978;7.034;2023-03-09T11:07:29;6.30;99.90
31597;DHT22;18201;50.978;7.034;2023-03-09T11:08:01;6.30;99.90
31597;DHT22;18201;50.978;7.034;2023-03-09T11:08:33;6.30;99.90
31597;DHT22;18201;50.978;7.034;2023-03-09T11:09:11;6.30;99.90
31597;DHT22;18201;50.978;7.034;2023-03-09T11:09:46;6.30;99.90
31597;DHT22;18201;50.978;7.034;2023-03-09T11:10:22;6.30;99.90
31597;DHT22;18201;50.978;7.034;2023-03-09T11:11:00;6.20;99.90
31597;DHT22;18201;50.978;7.034;2023-03-09T11:11:32;6.20;99.90
31597;DHT22;18201;50.978;7.034;2023-03-09T11:12:14;6.30;99.90
31597;DHT22;18201;50.978;7.034;2023-03-09T11:12:47;6.30;99.90
31597;DHT22;18201;50.978;7.034;2023-03-09T11:13:19;6.30;99.90
31597;DHT22;18201;50.978;7.034;2023-03-09T11:13:51;6.30;99.90
31597;DHT22;18201;50.978;7.034;2023-03-09T11:14:24;6.30;99.90
31597;DHT22;18201;50.978;7.034;2023-03-09T11:14:58;6.40;99.90
31597;DHT22;18201;50.978;7.034;2023-03-09T11:15:31;6.30;99.90
31597;DHT22;18201;50.978;7.034;2023-03-09T11:16:12;6.30;99.90
31597;DHT22;18201;50.978;7.034;2023-03-09T11:16:49;6.30;99.90
31597;DHT22;18201;50.978;7.034;2023-03-09T11:17:33;6.40;99.90
31597;DHT22;18201;50.978;7.034;2023-03-09T11:18:26;6.40;99.90
31597;DHT22;18201;50.978;7.034;2023-03-09T11:19:06;6.40;99.90
31597;DHT22;18201;50.978;7.034;2023-03-09T11:19:40;6.40;99.90
31597;DHT22;18201;50.978;7.034;2023-03-09T11:20:38;6.40;99.90
31597;DHT22;18201;50.978;7.034;2023-03-09T11:21:20;6.50;99.90
31597;DHT22;18201;50.978;7.034;2023-03-09T11:21:57;6.50;99.90
31597;DHT22;18201;50.978;7.034;2023-03-09T11:22:30;6.50;99.90
31597;DHT22;18201;50.978;7.034;2023-03-09T11:23:12;6.50;99.90
31597;DHT22;18201;50.978;7.034;2023-03-09T11:23:48;6.50;99.90
31597;DHT22;18201;50.978;7.034;2023-03-09T11:24:21;6.50;99.90
31597;DHT22;18201;50.978;7.034;2023-03-09T11:24:54;6.60;99.90
31597;DHT22;18201;50.978;7.034;2023-03-09T11:25:39;6.50;99.90
31597;DHT22;18201;50.978;7.034;2023-03-09T11:26:16;6.60;99.90
31597;DHT22;18201;50.978;7.034;2023-03-09T11:26:53;6.60;99.90
31597;DHT22;18201;50.978;7.034;2023-03-09T11:27:31;6.60;99.90
31597;DHT22;18201;50.978;7.034;2023-03-09T11:28:11;6.60;99.90
31597;DHT22;18201;50.978;7.034;2023-03-09T11:28:53;6.60;99.90
31597;DHT22;18201;50.978;7.034;2023-03-09T11:29:30;6.60;99.90
31597;DHT22;18201;50.978;7.034;2023-03-09T11:30:06;6.70;99.90
31597;DHT22;18201;50.978;7.034;2023-03-09T11:30:42;6.60;99.90
31597;DHT22;18201;50.978;7.034;2023-03-09T11:31:16;6.70;99.90
31597;DHT22;18201;50.978;7.034;2023-03-09T11:31:48;6.70;99.90
31597;DHT22;18201;50.978;7.034;2023-03-09T11:32:20;6.70;99.90
31597;DHT22;18201;50.978;7.034;2023-03-09T11:32:52;6.70;99.90
31597;DHT22;18201;50.978;7.034;2023-03-09T11:33:25;6.70;99.90
31597;DHT22;18201;50.978;7.034;2023-03-09T11:33:59;6.80;99.90
31597;DHT22;18201;50.978;7.034;2023-03-09T11:34:34;6.80;99.90
31597;DHT22;18201;50.978;7.034;2023-03-09T11:35:12;6.90;99.90
31597;DHT22;18201;50.978;7.034;2023-03-09T11:35:45;6.90;99.90
31597;DHT22;18201;50.978;7.034;2023-03-09T11:36:20;6.90;99.90
31597;DHT22;18201;50.978;7.034;2023-03-09T11:36:57;7.00;99.90
31597;DHT22;18201;50.978;7.034;2023-03-09T11:37:37;7.00;99.90
31597;DHT22;18201;50.978;7.034;2023-03-09T11:38:12;7.00;99.90
31597;DHT22;18201;50.978;7.034;2023-03-09T11:38:45;7.00;99.90
31597;DHT22;18201;50.978;7.034;2023-03-09T11:39:20;7.00;99.90
31597;DHT22;18201;50.978;7.034;2023-03-09T11:39:56;7.00;99.90
31597;DHT22;18201;50.978;7.034;2023-03-09T11:40:29;7.00;99.90
31597;DHT22;18201;50.978;7.034;2023-03-09T11:41:07;7.00;99.90
31597;DHT22;18201;50.978;7.034;2023-03-09T11:41:42;7.00;99.90
31597;DHT22;18201;50.978;7.034;2023-03-09T11:42:17;6.90;99.90
31597;DHT22;18201;50.978;7.034;2023-03-09T11:42:54;6.90;99.90
31597;DHT22;18201;50.978;7.034;2023-03-09T11:43:28;6.90;99.90
31597;DHT22;18201;50.978;7.034;2023-03-09T11:44:05;6.90;99.90
31597;DHT22;18201;50.978;7.034;2023-03-09T11:44:40;6.90;99.90
31597;DHT22;18201;50.978;7.034;2023-03-09T11:45:16;7.00;99.90
31597;DHT22;18201;50.978;7.034;2023-03-09T11:45:48;7.00;99.90
31597;DHT22;18201;50.978;7.034;2023-03-09T11:46:20;7.10;99.90
31597;DHT22;18201;50.978;7.034;2023-03-09T11:46:54;7.10;99.90
31597;DHT22;18201;50.978;7.034;2023-03-09T11:47:30;7.10;99.90
31597;DHT22;18201;50.978;7.034;2023-03-09T11:48:07;7.00;99.90
31597;DHT22;18201;50.978;7.034;2023-03-09T11:48:42;7.10;99.90
31597;DHT22;18201;50.978;7.034;2023-03-09T11:49:17;7.10;99.90
31597;DHT22;18201;50.978;7.034;2023-03-09T11:49:50;7.10;99.90
31597;DHT22;18201;50.978;7.034;2023-03-09T11:50:24;7.10;99.90
31597;DHT22;18201;50.978;7.034;2023-03-09T11:51:00;7.00;99.90
31597;DHT22;18201;50.978;7.034;2023-03-09T11:51:36;7.10;99.90
31597;DHT22;18201;50.978;7.034;2023-03-09T11:52:16;7.00;99.90
31597;DHT22;18201;50.978;7.034;2023-03-09T11:52:51;7.00;99.90
31597;DHT22;18201;50.978;7.034;2023-03-09T11:53:29;7.00;99.90
31597;DHT22;18201;50.978;7.034;2023-03-09T11:54:09;7.00;99.90
31597;DHT22;18201;50.978;7.034;2023-03-09T11:54:48;7.00;99.90
31597;DHT22;18201;50.978;7.034;2023-03-09T11:55:23;7.10;99.90
31597;DHT22;18201;50.978;7.034;2023-03-09T11:56:12;7.10;99.90
31597;DHT22;18201;50.978;7.034;2023-03-09T11:56:46;7.10;99.90
31597;DHT22;18201;50.978;7.034;2023-03-09T11:57:20;7.20;99.90
31597;DHT22;18201;50.978;7.034;2023-03-09T11:57:56;7.20;99.90
31597;DHT22;18201;50.978;7.034;2023-03-09T11:58:34;7.20;99.90
31597;DHT22;18201;50.978;7.034;2023-03-09T11:59:12;7.20;99.90
31597;DHT22;18201;50.978;7.034;2023-03-09T11:59:51;7.20;99.90
31597;DHT22;18201;50.978;7.034;2023-03-09T12:00:23;7.20;99.90
31597;DHT22;18201;50.978;7.034;2023-03-09T12:01:06;7.30;99.90
31597;DHT22;18201;50.978;7.034;2023-03-09T12:01:40;7.30;99.90
31597;DHT22;18201;50.978;7.034;2023-03-09T12:02:18;7.30;99.90
31597;DHT22;18201;50.978;7.034;2023-03-09T12:02:57;7.30;99.90
31597;DHT22;18201;50.978;7.034;2023-03-09T12:03:30;7.30;99.90
31597;DHT22;18201;50.978;7.034;2023-03-09T12:04:06;7.40;99.90
31597;DHT22;18201;50.978;7.034;2023-03-09T12:04:37;7.40;99.90
31597;DHT22;18201;50.978;7.034;2023-03-09T12:05:11;7.40;99.90
31597;DHT22;18201;50.978;7.034;2023-03-09T12:05:44;7.40;99.90
31597;DHT22;18201;50.978;7.034;2023-03-09T12:06:26;7.40;99.90
31597;DHT22;18201;50.978;7.034;2023-03-09T12:07:01;7.40;99.90
31597;DHT22;18201;50.978;7.034;2023-03-09T12:07:37;7.40;99.90
31597;DHT22;18201;50.978;7.034;2023-03-09T12:08:14;7.40;99.90
31597;DHT22;18201;50.978;7.034;2023-03-09T12:08:49;7.40;99.90
31597;DHT22;18201;50.978;7.034;2023-03-09T12:09:29;7.40;99.90
31597;DHT22;18201;50.978;7.034;2023-03-09T12:10:06;7.40;99.90
31597;DHT22;18201;50.978;7.034;2023-03-09T12:10:42;7.40;99.90
31597;DHT22;18201;50.978;7.034;2023-03-09T12:11:18;7.30;99.90
31597;DHT22;18201;50.978;7.034;2023-03-09T12:11:54;7.40;99.90
31597;DHT22;18201;50.978;7.034;2023-03-09T12:12:32;7.40;99.90
31597;DHT22;18201;50.978;7.034;2023-03-09T12:13:09;7.40;99.90
31597;DHT22;18201;50.978;7.034;2023-03-09T12:13:46;7.40;99.90
31597;DHT22;18201;50.978;7.034;2023-03-09T12:14:22;7.40;99.90
31597;DHT22;18201;50.978;7.034;2023-03-09T12:14:59;7.40;99.90
31597;DHT22;18201;50.978;7.034;2023-03-09T12:15:34;7.40;99.90
31597;DHT22;18201;50.978;7.034;2023-03-09T12:16:08;7.40;99.90
31597;DHT22;18201;50.978;7.034;2023-03-09T12:16:42;7.40;99.90
31597;DHT22;18201;50.978;7.034;2023-03-09T12:17:18;7.40;99.90
31597;DHT22;18201;50.978;7.034;2023-03-09T12:17:52;7.40;99.90
31597;DHT22;18201;50.978;7.034;2023-03-09T12:18:27;7.40;99.90
31597;DHT22;18201;50.978;7.034;2023-03-09T12:19:02;7.40;99.90
31597;DHT22;18201;50.978;7.034;2023-03-09T12:19:38;7.50;99.90
31597;DHT22;18201;50.978;7.034;2023-03-09T12:20:20;7.40;99.90
31597;DHT22;18201;50.978;7.034;2023-03-09T12:20:56;7.50;99.90
31597;DHT22;18201;50.978;7.034;2023-03-09T12:21:31;7.40;99.90